Time;durP1;ratioP1;P1;durP2;ratioP2;P2;SDS_P1;SDS_P2;PMS_P1;PMS_P2;Temp;Humidity;BMP_temperature;BMP_pressure;BME280_temperature;BME280_humidity;BME280_pressure;Samples;Min_cycle;Max_cycle;Signal;HPM_P1;HPM_P2
2022/05/19 00:02:11;;;;;;;17.75;14.38;;;;;;;;;;4972332;28;20043;-79
2022/05/19 00:04:38;;;;;;;22.85;15.02;;;;;;;;;;5002333;28;20487;-78
2022/05/19 00:07:04;;;;;;;20.70;13.82;;;;;;;;;;5001407;28;20078;-79
2022/05/19 00:09:31;;;;;;;21.17;12.85;;;;;;;;;;5003308;28;20039;-78
2022/05/19 00:11:58;;;;;;;25.50;16.40;;;;;;;;;;4970487;28;20035;-78
2022/05/19 00:14:24;;;;;;;25.50;15.85;;;;;;;;;;5001966;28;20086;-79
2022/05/19 00:16:52;;;;;;;26.00;16.45;;;;;;;;;;4985739;28;20125;-79
2022/05/19 00:19:18;;;;;;;24.02;16.15;;;;;;;;;;4970739;28;20051;-79
2022/05/19 00:21:44;;;;;;;22.00;15.95;;;;;;;;;;5015900;28;20042;-79
2022/05/19 00:24:11;;;;;;;24.15;16.58;;;;;;;;;;4969399;28;20050;-80
2022/05/19 00:26:37;;;;;;;28.55;16.92;;;;;;;;;;4969608;28;20463;-79
2022/05/19 00:29:03;;;;;;;24.10;16.77;;;;;;;;;;5002131;28;20043;-79
2022/05/19 00:31:31;;;;;;;24.85;17.88;;;;;;;;;;5011591;28;20093;-79
2022/05/19 00:33:57;;;;;;;23.05;15.52;;;;;;;;;;4994339;28;20078;-79
2022/05/19 00:36:23;;;;;;;23.73;17.63;;;;;;;;;;5001357;28;20053;-79
2022/05/19 00:38:50;;;;;;;21.75;15.00;;;;;;;;;;5001769;28;20371;-79
2022/05/19 00:41:16;;;;;;;24.35;17.23;;;;;;;;;;5005862;28;20046;-79
2022/05/19 00:43:44;;;;;;;22.88;15.80;;;;;;;;;;4973407;28;20038;-79
2022/05/19 00:46:13;;;;;;;21.00;15.93;;;;;;;;;;5001522;28;20043;-78
2022/05/19 00:48:54;;;;;;;24.77;17.95;;;;;;;;;;4985388;28;20532;-79
2022/05/19 00:51:23;;;;;;;21.85;14.35;;;;;;;;;;4985276;28;20047;-79
2022/05/19 00:53:56;;;;;;;26.80;17.15;;;;;;;;;;4973119;28;20501;-79
2022/05/19 00:56:37;;;;;;;28.02;16.40;;;;;;;;;;4970547;28;20042;-80
2022/05/19 00:59:11;;;;;;;27.52;18.25;;;;;;;;;;5001085;28;20102;-79
2022/05/19 01:01:43;;;;;;;27.48;19.05;;;;;;;;;;5001713;28;20525;-80
2022/05/19 01:04:15;;;;;;;24.98;18.17;;;;;;;;;;4969718;28;20043;-79
2022/05/19 01:06:44;;;;;;;26.60;19.02;;;;;;;;;;5002522;28;20046;-79
2022/05/19 01:09:11;;;;;;;28.83;18.40;;;;;;;;;;4971853;28;20390;-80
2022/05/19 01:11:38;;;;;;;27.73;18.90;;;;;;;;;;4988377;28;20498;-79
2022/05/19 01:14:05;;;;;;;25.52;16.15;;;;;;;;;;4989720;28;20058;-79
2022/05/19 01:16:32;;;;;;;30.40;18.80;;;;;;;;;;4952914;29;20058;-79
2022/05/19 01:18:58;;;;;;;26.20;19.58;;;;;;;;;;4968783;28;20082;-79
2022/05/19 01:21:27;;;;;;;27.35;18.98;;;;;;;;;;4968627;28;20085;-79
2022/05/19 01:23:53;;;;;;;21.38;14.63;;;;;;;;;;4978753;28;20050;-80
2022/05/19 01:26:28;;;;;;;27.10;18.40;;;;;;;;;;4972686;28;20039;-80
2022/05/19 01:28:56;;;;;;;29.80;18.85;;;;;;;;;;4971841;28;20042;-80
2022/05/19 01:31:35;;;;;;;25.92;18.50;;;;;;;;;;4973292;28;20047;-79
2022/05/19 01:34:02;;;;;;;30.63;19.85;;;;;;;;;;4973334;28;20049;-79
2022/05/19 01:36:29;;;;;;;30.23;19.52;;;;;;;;;;4972952;28;20494;-80
2022/05/19 01:39:01;;;;;;;29.77;20.30;;;;;;;;;;4971533;28;20130;-80
2022/05/19 01:41:27;;;;;;;31.38;19.38;;;;;;;;;;4971760;28;20043;-80
2022/05/19 01:43:53;;;;;;;26.75;19.13;;;;;;;;;;4955458;28;20465;-80
2022/05/19 01:46:25;;;;;;;26.95;19.38;;;;;;;;;;5001855;28;20038;-80
2022/05/19 01:48:55;;;;;;;24.55;16.10;;;;;;;;;;4991454;28;20041;-80
2022/05/19 01:51:40;;;;;;;25.75;16.30;;;;;;;;;;4990922;28;20042;-80
2022/05/19 01:54:09;;;;;;;24.95;17.20;;;;;;;;;;4991020;28;20441;-80
2022/05/19 01:56:35;;;;;;;24.23;18.05;;;;;;;;;;4976862;28;20049;-80
2022/05/19 01:59:04;;;;;;;27.55;18.85;;;;;;;;;;4971147;28;20042;-79
2022/05/19 02:01:30;;;;;;;28.88;18.95;;;;;;;;;;4969670;28;20096;-80
2022/05/19 02:04:17;;;;;;;27.95;20.08;;;;;;;;;;4961626;28;20046;-80
2022/05/19 02:06:43;;;;;;;;;;;;;;;;;;4999083;28;20109;-80
2022/05/19 02:09:15;;;;;;;32.60;20.83;;;;;;;;;;4988390;28;19921;-80
2022/05/19 02:12:08;;;;;;;32.72;21.83;;;;;;;;;;4992611;28;20089;-79
2022/05/19 02:15:02;;;;;;;34.65;21.67;;;;;;;;;;4993113;28;20062;-80
2022/05/19 02:17:29;;;;;;;31.58;21.92;;;;;;;;;;4989973;28;20062;-79
2022/05/19 02:19:57;;;;;;;34.72;22.65;;;;;;;;;;4990740;28;20067;-80
2022/05/19 02:22:25;;;;;;;34.92;21.75;;;;;;;;;;4990923;28;20462;-80
2022/05/19 02:24:55;;;;;;;33.05;20.58;;;;;;;;;;4991034;28;20038;-81
2022/05/19 02:27:27;;;;;;;31.67;21.55;;;;;;;;;;4989163;28;20559;-80
2022/05/19 02:29:54;;;;;;;30.77;20.98;;;;;;;;;;4989994;28;20042;-80
2022/05/19 02:32:20;;;;;;;29.42;19.85;;;;;;;;;;4990915;28;20085;-80
2022/05/19 02:34:46;;;;;;;30.30;20.58;;;;;;;;;;4991702;28;20389;-81
2022/05/19 02:37:12;;;;;;;26.38;17.92;;;;;;;;;;4989440;28;20034;-80
2022/05/19 02:39:39;;;;;;;28.33;19.95;;;;;;;;;;4981347;28;20493;-80
2022/05/19 02:42:06;;;;;;;26.45;19.17;;;;;;;;;;4983709;28;20422;-80
2022/05/19 02:44:32;;;;;;;31.05;20.95;;;;;;;;;;4990553;28;20394;-80
2022/05/19 02:46:58;;;;;;;31.05;20.65;;;;;;;;;;4990953;28;20038;-79
2022/05/19 02:49:24;;;;;;;32.47;22.60;;;;;;;;;;4974262;28;20047;-80
2022/05/19 02:51:50;;;;;;;30.85;23.02;;;;;;;;;;4990800;28;20053;-80
2022/05/19 02:54:20;;;;;;;36.15;23.48;;;;;;;;;;4990038;28;20082;-80
2022/05/19 02:56:47;;;;;;;33.10;22.20;;;;;;;;;;4990041;28;20121;-79
2022/05/19 02:59:13;;;;;;;38.75;24.30;;;;;;;;;;4974447;28;20061;-79
2022/05/19 03:01:39;;;;;;;39.08;24.40;;;;;;;;;;4972776;28;20053;-79
2022/05/19 03:04:05;;;;;;;36.72;24.38;;;;;;;;;;4971139;28;20089;-80
2022/05/19 03:06:31;;;;;;;42.55;25.60;;;;;;;;;;4970870;28;20039;-80
2022/05/19 03:08:57;;;;;;;34.60;23.55;;;;;;;;;;4984880;28;20074;-80
2022/05/19 03:11:23;;;;;;;36.88;25.77;;;;;;;;;;4988654;28;20096;-82
2022/05/19 03:13:49;;;;;;;38.67;27.27;;;;;;;;;;4990632;28;20486;-80
2022/05/19 03:16:15;;;;;;;45.45;27.70;;;;;;;;;;4991022;28;20054;-79
2022/05/19 03:18:42;;;;;;;41.03;27.45;;;;;;;;;;4988836;28;20509;-80
2022/05/19 03:21:08;;;;;;;38.88;27.60;;;;;;;;;;4985051;28;20173;-79
2022/05/19 03:23:34;;;;;;;42.22;27.77;;;;;;;;;;4969802;28;20058;-82
2022/05/19 03:26:00;;;;;;;43.20;28.23;;;;;;;;;;4970751;28;20118;-79
2022/05/19 03:28:26;;;;;;;45.65;28.58;;;;;;;;;;4971410;28;20493;-80
2022/05/19 03:30:52;;;;;;;41.78;28.08;;;;;;;;;;4953846;28;20054;-80
2022/05/19 03:33:18;;;;;;;42.53;29.60;;;;;;;;;;4970734;28;20137;-83
2022/05/19 03:35:44;;;;;;;43.55;30.20;;;;;;;;;;4939311;28;20043;-79
2022/05/19 03:38:11;;;;;;;46.03;29.83;;;;;;;;;;4969954;28;20050;-80
2022/05/19 03:40:37;;;;;;;46.90;30.75;;;;;;;;;;4955556;28;20054;-84
2022/05/19 03:43:03;;;;;;;51.80;31.00;;;;;;;;;;4956095;28;20055;-81
2022/05/19 03:45:29;;;;;;;47.70;31.85;;;;;;;;;;4970502;28;20060;-88
2022/05/19 03:47:55;;;;;;;48.92;32.35;;;;;;;;;;4971423;28;20043;-80
2022/05/19 03:50:22;;;;;;;46.72;31.80;;;;;;;;;;4971599;28;20074;-82
2022/05/19 03:52:48;;;;;;;48.83;33.28;;;;;;;;;;4971405;28;20122;-82
2022/05/19 03:55:14;;;;;;;50.63;32.78;;;;;;;;;;4953674;28;20093;-78
2022/05/19 03:57:42;;;;;;;47.85;31.73;;;;;;;;;;4938463;28;20046;-79
2022/05/19 04:00:08;;;;;;;52.63;32.50;;;;;;;;;;4971143;28;20077;-80
2022/05/19 04:02:35;;;;;;;51.88;34.10;;;;;;;;;;4975898;28;20042;-82
2022/05/19 04:05:01;;;;;;;54.38;34.47;;;;;;;;;;4968203;28;20050;-81
2022/05/19 04:07:27;;;;;;;52.75;34.33;;;;;;;;;;4969025;28;20453;-84
2022/05/19 04:09:53;;;;;;;53.55;35.60;;;;;;;;;;4969498;28;20525;-79
2022/05/19 04:12:20;;;;;;;47.38;33.90;;;;;;;;;;4970236;28;20047;-79
2022/05/19 04:14:46;;;;;;;51.95;34.42;;;;;;;;;;4972510;28;20455;-79
2022/05/19 04:17:12;;;;;;;52.83;34.72;;;;;;;;;;4970062;28;20096;-79
2022/05/19 04:19:39;;;;;;;46.70;33.00;;;;;;;;;;4970786;28;20042;-80
2022/05/19 04:22:05;;;;;;;46.08;31.80;;;;;;;;;;4971173;28;20394;-79
2022/05/19 04:24:31;;;;;;;44.55;31.75;;;;;;;;;;4975588;28;20101;-80
2022/05/19 04:26:57;;;;;;;48.00;32.85;;;;;;;;;;4990145;28;20039;-79
2022/05/19 04:29:23;;;;;;;45.70;32.53;;;;;;;;;;4989993;28;20516;-80
2022/05/19 04:31:49;;;;;;;44.33;31.48;;;;;;;;;;4989145;28;20065;-82
2022/05/19 04:34:15;;;;;;;41.72;29.27;;;;;;;;;;4990029;28;20046;-79
2022/05/19 04:36:41;;;;;;;37.42;27.90;;;;;;;;;;4989303;28;20086;-80
2022/05/19 04:39:07;;;;;;;43.65;28.67;;;;;;;;;;4980456;28;20293;-80
2022/05/19 04:41:33;;;;;;;40.38;28.23;;;;;;;;;;4993192;28;20493;-81
2022/05/19 04:43:59;;;;;;;38.42;29.23;;;;;;;;;;4988758;28;20437;-79
2022/05/19 04:46:25;;;;;;;42.97;28.02;;;;;;;;;;4978700;28;20043;-79
2022/05/19 04:48:51;;;;;;;41.33;28.85;;;;;;;;;;4973194;28;20047;-80
2022/05/19 04:51:17;;;;;;;44.75;29.02;;;;;;;;;;4972878;28;20043;-80
2022/05/19 04:53:44;;;;;;;47.40;28.35;;;;;;;;;;4981436;28;20088;-79
2022/05/19 04:56:10;;;;;;;39.45;28.58;;;;;;;;;;4991759;28;20045;-81
2022/05/19 04:58:36;;;;;;;38.40;27.40;;;;;;;;;;4977385;28;20039;-80
2022/05/19 05:01:04;;;;;;;37.45;27.00;;;;;;;;;;4969707;28;20051;-82
2022/05/19 05:03:30;;;;;;;38.40;26.33;;;;;;;;;;5004493;28;20046;-81
2022/05/19 05:05:56;;;;;;;39.20;27.25;;;;;;;;;;4971449;28;20178;-80
2022/05/19 05:08:22;;;;;;;37.28;26.73;;;;;;;;;;4971375;28;20042;-80
2022/05/19 05:10:48;;;;;;;37.10;26.45;;;;;;;;;;4955151;28;20402;-80
2022/05/19 05:13:15;;;;;;;33.63;24.48;;;;;;;;;;4970844;28;20057;-79
2022/05/19 05:15:42;;;;;;;32.47;23.50;;;;;;;;;;4988247;28;20416;-80
2022/05/19 05:18:08;;;;;;;30.70;20.98;;;;;;;;;;4982443;28;20615;-79
2022/05/19 05:20:35;;;;;;;27.77;19.90;;;;;;;;;;4992069;28;20046;-78
2022/05/19 05:23:01;;;;;;;27.33;19.50;;;;;;;;;;4991948;28;20068;-79
2022/05/19 05:25:29;;;;;;;22.02;16.75;;;;;;;;;;4981831;28;20055;-79
2022/05/19 05:27:57;;;;;;;18.73;13.60;;;;;;;;;;4979474;28;20474;-80
2022/05/19 05:30:23;;;;;;;18.15;12.38;;;;;;;;;;4991896;28;20046;-79
2022/05/19 05:32:50;;;;;;;14.50;10.30;;;;;;;;;;4991959;28;20046;-79
2022/05/19 05:35:16;;;;;;;12.15;8.20;;;;;;;;;;4990067;28;20457;-80
2022/05/19 05:37:42;;;;;;;14.20;6.63;;;;;;;;;;4990311;28;20105;-78
2022/05/19 05:40:10;;;;;;;9.88;5.15;;;;;;;;;;4971937;28;20058;-79
2022/05/19 05:42:37;;;;;;;9.40;4.00;;;;;;;;;;4972462;28;20121;-81
2022/05/19 05:45:03;;;;;;;13.50;3.60;;;;;;;;;;4972306;28;20046;-78
2022/05/19 05:47:29;;;;;;;7.03;3.50;;;;;;;;;;4972809;28;20054;-77
2022/05/19 05:49:55;;;;;;;5.28;2.83;;;;;;;;;;4973154;28;20331;-78
2022/05/19 05:52:22;;;;;;;6.57;2.97;;;;;;;;;;4955405;28;20070;-78
2022/05/19 05:54:48;;;;;;;9.00;3.20;;;;;;;;;;4972333;28;20046;-79
2022/05/19 05:57:15;;;;;;;10.18;3.10;;;;;;;;;;4982095;28;20038;-79
2022/05/19 05:59:41;;;;;;;9.75;3.58;;;;;;;;;;4990439;28;20054;-78
2022/05/19 06:02:07;;;;;;;6.28;3.13;;;;;;;;;;4991183;28;20062;-77
2022/05/19 06:04:33;;;;;;;8.73;3.05;;;;;;;;;;4991038;28;20038;-78
2022/05/19 06:07:00;;;;;;;7.82;3.17;;;;;;;;;;4987473;28;20162;-77
2022/05/19 06:09:26;;;;;;;7.97;2.90;;;;;;;;;;4972481;28;20570;-75
2022/05/19 06:11:52;;;;;;;9.10;3.25;;;;;;;;;;4972361;28;20035;-81
2022/05/19 06:14:18;;;;;;;7.88;3.03;;;;;;;;;;4972427;28;20043;-80
2022/05/19 06:16:45;;;;;;;7.38;3.00;;;;;;;;;;4972895;28;20061;-81
2022/05/19 06:19:11;;;;;;;7.95;2.85;;;;;;;;;;4988323;28;20054;-81
2022/05/19 06:21:39;;;;;;;7.63;3.88;;;;;;;;;;4980980;28;20261;-81
2022/05/19 06:24:09;;;;;;;13.32;4.60;;;;;;;;;;5007522;28;20459;-80
2022/05/19 06:26:37;;;;;;;7.43;3.72;;;;;;;;;;4991358;28;20159;-81
2022/05/19 06:29:03;;;;;;;10.13;4.57;;;;;;;;;;5005882;28;20049;-81
2022/05/19 06:31:31;;;;;;;9.15;4.00;;;;;;;;;;4989995;28;20559;-79
2022/05/19 06:33:58;;;;;;;12.20;5.38;;;;;;;;;;4991866;28;20107;-80
2022/05/19 06:36:24;;;;;;;10.75;5.60;;;;;;;;;;5007688;28;20061;-80
2022/05/19 06:38:50;;;;;;;9.32;5.07;;;;;;;;;;4989442;28;20078;-80
2022/05/19 06:44:01;;;;;;;10.90;5.88;;;;;;;;;;4991031;28;20494;-78
2022/05/19 06:46:27;;;;;;;10.45;5.93;;;;;;;;;;4991207;28;20042;-77
2022/05/19 06:48:53;;;;;;;11.75;5.97;;;;;;;;;;4972677;28;20046;-79
2022/05/19 06:51:19;;;;;;;11.95;5.30;;;;;;;;;;4987457;28;20045;-78
2022/05/19 06:53:45;;;;;;;9.20;5.55;;;;;;;;;;4978351;28;20129;-78
2022/05/19 06:56:12;;;;;;;11.63;4.60;;;;;;;;;;4981716;28;20410;-79
2022/05/19 06:58:38;;;;;;;11.75;4.45;;;;;;;;;;4970281;28;20399;-78
2022/05/19 07:01:05;;;;;;;13.48;5.22;;;;;;;;;;4970458;28;20540;-78
2022/05/19 07:03:31;;;;;;;7.80;4.18;;;;;;;;;;4973482;28;20051;-78
2022/05/19 07:05:57;;;;;;;8.25;3.60;;;;;;;;;;4970307;28;20050;-77
2022/05/19 07:08:23;;;;;;;7.55;3.58;;;;;;;;;;4969884;28;20043;-77
2022/05/19 07:10:49;;;;;;;8.82;4.20;;;;;;;;;;4970249;28;20118;-78
2022/05/19 07:13:16;;;;;;;7.18;4.30;;;;;;;;;;4969851;28;20249;-78
2022/05/19 07:15:42;;;;;;;8.48;4.30;;;;;;;;;;4986603;28;20054;-78
2022/05/19 07:18:08;;;;;;;8.70;4.93;;;;;;;;;;4973661;28;20077;-78
2022/05/19 07:20:44;;;;;;;8.88;5.20;;;;;;;;;;4969852;28;20051;-78
2022/05/19 07:23:15;;;;;;;10.02;5.88;;;;;;;;;;4970604;28;20482;-79
2022/05/19 07:25:43;;;;;;;11.32;6.60;;;;;;;;;;4970274;28;20486;-77
2022/05/19 07:28:09;;;;;;;11.05;7.82;;;;;;;;;;4969999;28;20050;-77
2022/05/19 07:30:36;;;;;;;10.50;7.65;;;;;;;;;;4969939;28;20081;-78
2022/05/19 07:33:02;;;;;;;13.68;9.13;;;;;;;;;;4976360;28;20046;-79
2022/05/19 07:35:28;;;;;;;12.95;8.20;;;;;;;;;;4975732;28;20081;-79
2022/05/19 07:37:54;;;;;;;16.17;10.13;;;;;;;;;;4969923;28;20078;-80
2022/05/19 07:40:20;;;;;;;17.85;11.35;;;;;;;;;;4954403;28;20047;-83
2022/05/19 07:42:46;;;;;;;16.73;10.23;;;;;;;;;;4984648;28;20474;-79
2022/05/19 07:45:14;;;;;;;15.55;12.10;;;;;;;;;;4989607;28;20054;-80
2022/05/19 07:47:40;;;;;;;16.00;10.65;;;;;;;;;;4988908;28;20042;-83
2022/05/19 07:50:09;;;;;;;16.50;10.40;;;;;;;;;;4989587;28;20042;-78
2022/05/19 07:52:36;;;;;;;17.05;11.25;;;;;;;;;;4986914;28;20054;-81
2022/05/19 07:55:02;;;;;;;16.90;11.32;;;;;;;;;;4989610;28;20046;-82
2022/05/19 07:57:28;;;;;;;17.80;10.10;;;;;;;;;;4989018;28;20050;-78
2022/05/19 07:59:54;;;;;;;14.52;10.75;;;;;;;;;;4988707;28;20058;-78
2022/05/19 08:02:20;;;;;;;18.40;11.32;;;;;;;;;;4981057;28;20110;-79
2022/05/19 08:04:47;;;;;;;14.13;9.32;;;;;;;;;;4969394;28;20058;-78
2022/05/19 08:07:13;;;;;;;14.98;10.38;;;;;;;;;;4986165;28;20509;-78
2022/05/19 08:15:36;;;;;;;15.63;10.00;;;;;;;;;;4956230;28;20051;-79
2022/05/19 08:18:04;;;;;;;19.10;9.83;;;;;;;;;;4974879;28;20121;-80
2022/05/19 08:20:30;;;;;;;17.98;10.40;;;;;;;;;;4974106;28;20073;-78
2022/05/19 08:22:57;;;;;;;14.52;9.07;;;;;;;;;;4973646;28;20053;-77
2022/05/19 08:25:27;;;;;;;21.88;9.15;;;;;;;;;;4973125;28;20047;-78
2022/05/19 08:27:54;;;;;;;15.07;9.38;;;;;;;;;;5007888;28;20043;-77
2022/05/19 08:30:21;;;;;;;12.65;8.55;;;;;;;;;;4989301;28;20045;-78
2022/05/19 08:32:47;;;;;;;15.38;9.35;;;;;;;;;;5002558;28;20104;-78
2022/05/19 08:35:13;;;;;;;13.43;9.10;;;;;;;;;;5008644;28;20050;-83
2022/05/19 08:37:39;;;;;;;11.52;8.38;;;;;;;;;;4993062;28;20077;-78
2022/05/19 08:40:06;;;;;;;12.20;8.30;;;;;;;;;;4992887;28;20399;-78
2022/05/19 08:42:34;;;;;;;13.10;8.32;;;;;;;;;;4983776;28;20050;-76
2022/05/19 08:45:03;;;;;;;13.32;8.80;;;;;;;;;;4972045;28;20046;-76
2022/05/19 08:47:31;;;;;;;10.85;7.35;;;;;;;;;;4973626;28;20593;-77
2022/05/19 08:49:58;;;;;;;12.65;8.18;;;;;;;;;;4991155;28;20089;-76
2022/05/19 08:52:25;;;;;;;11.32;7.57;;;;;;;;;;4990036;28;20047;-75
2022/05/19 08:54:53;;;;;;;14.30;8.32;;;;;;;;;;4990820;28;20046;-76
2022/05/19 08:57:27;;;;;;;10.77;7.43;;;;;;;;;;4990690;28;20092;-79
2022/05/19 09:00:12;;;;;;;10.50;6.10;;;;;;;;;;4988418;28;20466;-76
2022/05/19 09:02:47;;;;;;;12.48;6.63;;;;;;;;;;4992272;28;20046;-75
2022/05/19 09:05:23;;;;;;;10.13;6.00;;;;;;;;;;4972330;28;20494;-75
2022/05/19 09:07:59;;;;;;;10.50;6.40;;;;;;;;;;4972710;28;20126;-75
2022/05/19 09:10:31;;;;;;;9.82;5.63;;;;;;;;;;4973661;28;20054;-75
2022/05/19 09:13:04;;;;;;;10.95;5.70;;;;;;;;;;4971989;28;20259;-78
2022/05/19 09:15:30;;;;;;;9.55;6.05;;;;;;;;;;4972945;28;20047;-77
2022/05/19 09:17:56;;;;;;;8.93;5.80;;;;;;;;;;4972568;28;20054;-74
2022/05/19 09:20:28;;;;;;;11.43;5.25;;;;;;;;;;4983640;28;20417;-75
2022/05/19 09:23:00;;;;;;;9.98;5.43;;;;;;;;;;4991991;28;20525;-77
2022/05/19 09:25:26;;;;;;;8.23;5.22;;;;;;;;;;5005664;28;20117;-77
2022/05/19 09:27:52;;;;;;;9.25;5.00;;;;;;;;;;4990778;28;20042;-76
2022/05/19 09:30:38;;;;;;;5.35;3.17;;;;;;;;;;4973129;28;20130;-76
2022/05/19 09:33:09;;;;;;;4.68;2.72;;;;;;;;;;4992913;28;20515;-76
2022/05/19 09:35:42;;;;;;;4.85;2.55;;;;;;;;;;4991020;28;20053;-76
2022/05/19 09:38:12;;;;;;;7.70;3.30;;;;;;;;;;5007166;28;20050;-76
2022/05/19 09:40:40;;;;;;;6.25;3.13;;;;;;;;;;5001823;28;20057;-76
2022/05/19 09:43:18;;;;;;;6.38;3.60;;;;;;;;;;5004360;28;20047;-73
2022/05/19 09:45:51;;;;;;;5.40;3.22;;;;;;;;;;4971895;28;20035;-75
2022/05/19 09:48:23;;;;;;;5.45;3.15;;;;;;;;;;4987099;28;20101;-75
2022/05/19 09:50:54;;;;;;;5.38;3.47;;;;;;;;;;4989389;28;20042;-74
2022/05/19 09:53:25;;;;;;;6.03;4.00;;;;;;;;;;5007233;28;20076;-74
2022/05/19 09:55:58;;;;;;;6.25;3.97;;;;;;;;;;5006840;28;20053;-80
2022/05/19 09:58:27;;;;;;;5.13;3.08;;;;;;;;;;4989868;28;20046;-85
2022/05/19 10:01:00;;;;;;;5.07;3.50;;;;;;;;;;4990724;28;20065;-88
2022/05/19 10:03:37;;;;;;;7.30;3.38;;;;;;;;;;4972905;28;20046;-73
2022/05/19 10:06:06;;;;;;;6.80;3.10;;;;;;;;;;4970725;28;20043;-73
2022/05/19 10:08:37;;;;;;;5.45;2.88;;;;;;;;;;4964262;28;20410;-72
2022/05/19 10:11:21;;;;;;;5.53;3.05;;;;;;;;;;4972978;28;20049;-75
2022/05/19 10:14:03;;;;;;;4.73;2.63;;;;;;;;;;4993592;28;20109;-73
2022/05/19 10:16:48;;;;;;;6.28;3.17;;;;;;;;;;4980659;28;20057;-75
2022/05/19 10:19:14;;;;;;;7.15;3.70;;;;;;;;;;5001464;28;20047;-75
2022/05/19 10:21:49;;;;;;;5.00;2.67;;;;;;;;;;4973120;28;20039;-75
2022/05/19 10:24:28;;;;;;;7.35;3.28;;;;;;;;;;4952349;29;20051;-73
2022/05/19 10:32:51;;;;;;;5.57;3.13;;;;;;;;;;4987234;28;20561;-73
2022/05/19 10:35:17;;;;;;;4.50;3.30;;;;;;;;;;4970402;28;20385;-76
2022/05/19 10:37:50;;;;;;;5.45;3.50;;;;;;;;;;4972034;28;20513;-74
2022/05/19 10:40:28;;;;;;;9.77;3.40;;;;;;;;;;4971172;28;20073;-80
2022/05/19 10:43:00;;;;;;;6.07;3.00;;;;;;;;;;4971233;28;20118;-75
2022/05/19 10:45:39;;;;;;;8.40;4.10;;;;;;;;;;4973792;28;20419;-74
2022/05/19 10:48:24;;;;;;;9.65;4.80;;;;;;;;;;4973948;28;20051;-75
2022/05/19 10:50:57;;;;;;;9.27;4.13;;;;;;;;;;4983488;28;20043;-76
2022/05/19 10:53:35;;;;;;;6.40;3.65;;;;;;;;;;4990607;28;20042;-75
2022/05/19 10:56:04;;;;;;;5.53;3.88;;;;;;;;;;4999240;28;20173;-75
2022/05/19 10:58:49;;;;;;;6.07;3.40;;;;;;;;;;4991328;28;20043;-74
2022/05/19 11:01:15;;;;;;;4.40;3.30;;;;;;;;;;4989167;28;20108;-75
2022/05/19 11:03:48;;;;;;;5.53;3.50;;;;;;;;;;4973298;28;20302;-73
2022/05/19 11:06:49;;;;;;;6.25;3.55;;;;;;;;;;4986709;28;20034;-74
2022/05/19 11:09:34;;;;;;;4.35;2.67;;;;;;;;;;4936186;28;20047;-75
2022/05/19 11:12:29;;;;;;;4.75;2.80;;;;;;;;;;5002580;28;20493;-76
2022/05/19 11:15:02;;;;;;;5.60;2.58;;;;;;;;;;4976649;28;20114;-74
2022/05/19 11:17:38;;;;;;;4.10;2.75;;;;;;;;;;4970916;28;20082;-74
2022/05/19 11:20:04;;;;;;;;;;;;;;;;;;4971278;28;20058;-89
2022/05/19 11:22:31;;;;;;;5.50;3.00;;;;;;;;;;4970687;28;20537;-73
2022/05/19 11:27:49;;;;;;;5.90;2.90;;;;;;;;;;4994378;28;20053;-74
2022/05/19 11:30:20;;;;;;;5.85;3.28;;;;;;;;;;4973116;28;20045;-75
2022/05/19 11:32:52;;;;;;;4.60;3.08;;;;;;;;;;4970036;28;20039;-75
2022/05/19 11:35:20;;;;;;;4.97;3.25;;;;;;;;;;4969831;28;20050;-74
2022/05/19 11:37:54;;;;;;;6.47;3.15;;;;;;;;;;4977565;28;20323;-75
2022/05/19 11:40:21;;;;;;;6.30;4.47;;;;;;;;;;4988689;28;20552;-75
2022/05/19 11:42:50;;;;;;;9.20;3.60;;;;;;;;;;4989258;28;20042;-84
2022/05/19 11:45:20;;;;;;;4.68;2.75;;;;;;;;;;4996926;28;20038;-86
2022/05/19 11:56:09;;;;;;;5.53;2.70;;;;;;;;;;4988797;28;20494;-76
2022/05/19 11:58:37;;;;;;;6.30;2.92;;;;;;;;;;4988405;28;20050;-74
2022/05/19 12:01:06;;;;;;;5.35;2.30;;;;;;;;;;5005198;28;20061;-75
2022/05/19 12:03:32;;;;;;;3.30;2.50;;;;;;;;;;4997027;28;20041;-74
2022/05/19 12:06:00;;;;;;;5.00;2.17;;;;;;;;;;4969282;28;20052;-74
2022/05/19 12:08:37;;;;;;;2.83;2.20;;;;;;;;;;4984998;28;20045;-74
2022/05/19 12:11:10;;;;;;;4.05;2.20;;;;;;;;;;4968905;28;20043;-74
2022/05/19 12:13:36;;;;;;;5.18;2.20;;;;;;;;;;4970504;28;20398;-74
2022/05/19 12:16:14;;;;;;;3.60;1.98;;;;;;;;;;4951743;28;20435;-74
2022/05/19 12:18:43;;;;;;;3.97;2.45;;;;;;;;;;4966651;28;20047;-74
2022/05/19 12:21:09;;;;;;;3.78;2.30;;;;;;;;;;4967535;28;20051;-75
2022/05/19 12:23:38;;;;;;;3.90;2.13;;;;;;;;;;4977624;28;20042;-76
2022/05/19 12:26:13;;;;;;;3.95;2.15;;;;;;;;;;4987599;28;20520;-75
2022/05/19 12:28:52;;;;;;;8.73;2.50;;;;;;;;;;4987212;28;20047;-76
2022/05/19 12:34:08;;;;;;;10.32;6.22;;;;;;;;;;4989655;28;20046;-75
2022/05/19 12:36:42;;;;;;;10.65;6.70;;;;;;;;;;4976635;28;20117;-74
2022/05/19 12:39:09;;;;;;;10.63;7.00;;;;;;;;;;4969887;28;20406;-79
2022/05/19 12:41:40;;;;;;;16.20;7.40;;;;;;;;;;4957857;28;20605;-77
2022/05/19 12:44:25;;;;;;;13.43;6.25;;;;;;;;;;4976403;28;20090;-81
2022/05/19 12:46:57;;;;;;;17.25;6.70;;;;;;;;;;4970628;28;20047;-80
2022/05/19 12:49:25;;;;;;;12.82;6.28;;;;;;;;;;4969417;28;20046;-77
2022/05/19 12:51:51;;;;;;;13.13;5.93;;;;;;;;;;4985907;28;20043;-77
2022/05/19 12:54:19;;;;;;;6.95;4.82;;;;;;;;;;4970491;28;20054;-78
2022/05/19 12:56:45;;;;;;;8.55;4.30;;;;;;;;;;4989326;28;20486;-75
2022/05/19 12:59:23;;;;;;;9.82;4.72;;;;;;;;;;4984673;28;20046;-76
2022/05/19 13:01:50;;;;;;;13.00;5.30;;;;;;;;;;4985712;28;20042;-77
2022/05/19 13:04:21;;;;;;;7.07;3.53;;;;;;;;;;4956424;28;20051;-77
2022/05/19 13:07:00;;;;;;;8.02;3.13;;;;;;;;;;5006235;28;20061;-77
2022/05/19 13:09:27;;;;;;;4.80;2.20;;;;;;;;;;4974710;28;20042;-76
2022/05/19 13:11:55;;;;;;;4.75;2.47;;;;;;;;;;4989966;28;20123;-76
2022/05/19 13:14:26;;;;;;;3.75;1.90;;;;;;;;;;4982213;28;20181;-76
2022/05/19 13:16:54;;;;;;;4.82;2.10;;;;;;;;;;4983802;28;20045;-75
2022/05/19 13:19:31;;;;;;;4.68;1.70;;;;;;;;;;4991091;28;20042;-76
2022/05/19 13:22:07;;;;;;;3.05;1.30;;;;;;;;;;4991448;28;20263;-75
2022/05/19 13:24:45;;;;;;;4.88;1.90;;;;;;;;;;4991380;28;20046;-75
2022/05/19 13:30:21;;;;;;;4.88;1.42;;;;;;;;;;4987433;28;20086;-76
2022/05/19 13:32:47;;;;;;;;;;;;;;;;;;4971085;28;20118;-75
2022/05/19 13:35:13;;;;;;;5.15;1.60;;;;;;;;;;5004212;28;20010;-76
2022/05/19 13:37:40;;;;;;;3.58;1.40;;;;;;;;;;4983178;28;20054;-75
2022/05/19 13:40:09;;;;;;;3.97;2.05;;;;;;;;;;4991938;28;20050;-75
2022/05/19 13:42:36;;;;;;;4.63;1.98;;;;;;;;;;4990814;28;20245;-75
2022/05/19 13:45:03;;;;;;;5.82;1.83;;;;;;;;;;5006368;28;20061;-75
2022/05/19 13:47:30;;;;;;;4.70;1.80;;;;;;;;;;4984465;28;20529;-75
2022/05/19 13:49:58;;;;;;;5.88;2.33;;;;;;;;;;4972257;28;20042;-74
2022/05/19 13:52:25;;;;;;;7.35;2.25;;;;;;;;;;4971615;28;20405;-75
2022/05/19 13:54:51;;;;;;;5.28;1.77;;;;;;;;;;4971672;28;20043;-75
2022/05/19 13:57:20;;;;;;;10.25;2.50;;;;;;;;;;4973368;28;20054;-75
2022/05/19 13:59:50;;;;;;;6.43;2.42;;;;;;;;;;4993001;28;20050;-73
2022/05/19 14:02:28;;;;;;;6.00;2.22;;;;;;;;;;4991467;28;20520;-74
2022/05/19 14:04:54;;;;;;;6.05;2.10;;;;;;;;;;4995347;28;20089;-74
2022/05/19 14:07:20;;;;;;;4.20;2.13;;;;;;;;;;4983244;28;20441;-74
2022/05/19 14:10:02;;;;;;;6.95;2.42;;;;;;;;;;4989546;28;20117;-75
2022/05/19 14:12:52;;;;;;;6.85;2.78;;;;;;;;;;4985320;28;20042;-74
2022/05/19 14:15:21;;;;;;;4.75;2.75;;;;;;;;;;4986342;28;20490;-78
2022/05/19 14:17:57;;;;;;;5.03;2.15;;;;;;;;;;4972378;28;20042;-80
2022/05/19 14:20:43;;;;;;;6.45;2.53;;;;;;;;;;4992477;28;20152;-78
2022/05/19 14:23:11;;;;;;;4.65;2.60;;;;;;;;;;4972392;28;20051;-74
2022/05/19 14:25:38;;;;;;;6.78;2.65;;;;;;;;;;4987294;28;20054;-74
2022/05/19 14:28:13;;;;;;;6.20;2.70;;;;;;;;;;4971829;28;20046;-76
2022/05/19 14:30:41;;;;;;;4.43;2.40;;;;;;;;;;4985571;28;20081;-75
2022/05/19 14:33:14;;;;;;;5.57;2.58;;;;;;;;;;4991069;28;20546;-75
2022/05/19 14:35:44;;;;;;;4.40;2.40;;;;;;;;;;4990277;28;20078;-80
2022/05/19 14:38:24;;;;;;;5.35;2.70;;;;;;;;;;4990963;28;20454;-74
2022/05/19 14:43:38;;;;;;;4.97;2.97;;;;;;;;;;4980946;28;20494;-76
2022/05/19 14:46:04;;;;;;;5.50;3.15;;;;;;;;;;4987231;28;20082;-74
2022/05/19 14:48:39;;;;;;;5.75;3.20;;;;;;;;;;4986719;28;20105;-75
2022/05/19 14:51:17;;;;;;;6.65;3.30;;;;;;;;;;4987021;28;20134;-76
2022/05/19 14:53:45;;;;;;;5.40;3.28;;;;;;;;;;4986248;28;20061;-76
2022/05/19 14:56:16;;;;;;;5.20;3.53;;;;;;;;;;4986563;28;20046;-75
2022/05/19 14:58:49;;;;;;;5.93;3.58;;;;;;;;;;4986752;28;20101;-79
2022/05/19 15:01:15;;;;;;;6.05;3.20;;;;;;;;;;4991512;28;20081;-76
2022/05/19 15:03:42;;;;;;;7.35;3.50;;;;;;;;;;4989350;28;20050;-75
2022/05/19 15:06:11;;;;;;;4.53;3.58;;;;;;;;;;4989746;28;20105;-78
2022/05/19 15:08:37;;;;;;;5.03;3.45;;;;;;;;;;4989636;28;20049;-77
2022/05/19 15:11:04;;;;;;;6.00;3.58;;;;;;;;;;4997644;28;20054;-75
2022/05/19 15:13:32;;;;;;;6.68;3.20;;;;;;;;;;4971604;28;20046;-75
2022/05/19 15:15:58;;;;;;;5.43;2.90;;;;;;;;;;4970162;28;20106;-70
2022/05/19 15:18:25;;;;;;;5.93;3.05;;;;;;;;;;4971274;28;20065;-75